createdAt,value
2022-08-21T00:02:30.158Z,17.39
2022-08-21T00:04:57.714Z,17.38
2022-08-21T00:07:25.522Z,17.34
2022-08-21T00:09:53.525Z,17.25
2022-08-21T00:12:20.780Z,17.24
2022-08-21T00:14:47.507Z,17.26
2022-08-21T00:17:14.188Z,17.18
2022-08-21T00:19:40.870Z,17.07
2022-08-21T00:22:07.531Z,17.29
2022-08-21T00:24:34.368Z,17.35
2022-08-21T00:27:01.076Z,17.15
2022-08-21T00:29:27.731Z,17.15
2022-08-21T00:31:54.435Z,16.89
2022-08-21T00:34:21.287Z,16.89
2022-08-21T00:36:47.926Z,16.98
2022-08-21T00:39:14.571Z,16.98
2022-08-21T00:41:42.759Z,16.87
2022-08-21T00:44:12.913Z,17.05
2022-08-21T00:46:40.780Z,16.90
2022-08-21T00:49:08.544Z,16.90
2022-08-21T00:51:44.422Z,16.82
2022-08-21T00:54:18.790Z,16.89
2022-08-21T00:56:49.046Z,16.72
2022-08-21T00:59:18.018Z,16.72
2022-08-21T01:01:44.758Z,16.77
2022-08-21T01:04:12.499Z,16.94
2022-08-21T01:06:39.134Z,16.86
2022-08-21T01:09:05.825Z,16.87
2022-08-21T01:11:35.779Z,16.92
2022-08-21T01:14:05.873Z,16.87
2022-08-21T01:16:34.015Z,16.83
2022-08-21T01:19:00.648Z,16.64
2022-08-21T01:21:29.209Z,16.82
2022-08-21T01:23:57.721Z,16.84
2022-08-21T01:26:33.926Z,16.76
2022-08-21T01:29:20.914Z,16.78
2022-08-21T01:31:47.821Z,16.65
2022-08-21T01:34:16.637Z,16.67
2022-08-21T01:36:45.772Z,16.63
2022-08-21T01:39:12.555Z,16.66
2022-08-21T01:41:39.120Z,16.68
2022-08-21T01:44:05.910Z,16.47
2022-08-21T01:46:32.609Z,16.44
2022-08-21T01:48:59.292Z,16.60
2022-08-21T01:51:25.884Z,16.56
2022-08-21T01:53:52.656Z,16.57
2022-08-21T01:56:19.672Z,16.53
2022-08-21T01:58:48.189Z,16.38
2022-08-21T02:01:15.110Z,16.29
2022-08-21T02:03:42.453Z,16.43
2022-08-21T02:06:14.840Z,16.38
2022-08-21T02:08:41.779Z,16.25
2022-08-21T02:11:08.443Z,16.22
2022-08-21T02:13:37.238Z,16.33
2022-08-21T02:16:04.003Z,16.35
2022-08-21T02:18:30.838Z,16.06
2022-08-21T02:20:57.526Z,16.05
2022-08-21T02:23:27.200Z,16.20
2022-08-21T02:26:07.637Z,16.17
2022-08-21T02:28:34.864Z,16.19
2022-08-21T02:31:02.401Z,16.16
2022-08-21T02:33:29.763Z,16.09
2022-08-21T02:35:57.479Z,16.11
2022-08-21T02:38:29.158Z,15.99
2022-08-21T02:40:56.460Z,16.06
2022-08-21T02:43:25.037Z,16.13
2022-08-21T02:45:52.685Z,16.10
2022-08-21T02:48:22.661Z,16.10
2022-08-21T02:50:54.565Z,16.10
2022-08-21T02:53:21.372Z,15.96
2022-08-21T02:55:50.264Z,15.95
2022-08-21T02:58:20.960Z,15.55
2022-08-21T03:00:48.251Z,15.73
2022-08-21T03:03:15.712Z,15.81
2022-08-21T03:05:44.348Z,15.66
2022-08-21T03:08:13.261Z,15.85
2022-08-21T03:10:46.028Z,15.69
2022-08-21T03:13:13.380Z,15.62
2022-08-21T03:15:43.278Z,15.31
2022-08-21T03:18:11.053Z,15.21
2022-08-21T03:20:39.646Z,14.68
2022-08-21T03:23:12.451Z,14.84
2022-08-21T03:25:43.623Z,14.30
2022-08-21T03:28:15.176Z,14.32
2022-08-21T03:30:44.745Z,14.38
2022-08-21T03:33:12.296Z,14.36
2022-08-21T03:35:43.480Z,14.38
2022-08-21T03:38:10.499Z,14.40
2022-08-21T03:40:37.226Z,14.82
2022-08-21T03:43:03.880Z,15.14
2022-08-21T03:45:30.576Z,15.23
2022-08-21T03:48:02.672Z,15.41
2022-08-21T03:50:32.954Z,15.45
2022-08-21T03:53:02.120Z,15.26
2022-08-21T03:55:29.185Z,15.42
2022-08-21T03:57:56.854Z,15.46
2022-08-21T04:00:24.351Z,15.44
2022-08-21T04:02:51.441Z,15.37
2022-08-21T04:05:39.210Z,15.81
2022-08-21T04:08:07.355Z,15.60
2022-08-21T04:10:36.326Z,15.60
2022-08-21T04:13:04.705Z,15.54
2022-08-21T04:15:31.502Z,15.38
2022-08-21T04:17:58.090Z,15.69
2022-08-21T04:20:26.031Z,15.69
2022-08-21T04:22:53.220Z,15.81
2022-08-21T04:25:22.544Z,15.78
2022-08-21T04:27:49.726Z,15.64
2022-08-21T04:30:17.288Z,15.71
2022-08-21T04:32:45.976Z,15.66
2022-08-21T04:35:14.528Z,15.70
2022-08-21T04:37:42.109Z,15.49
2022-08-21T04:40:11.290Z,15.56
2022-08-21T04:42:47.498Z,15.52
2022-08-21T04:45:21.505Z,15.44
2022-08-21T04:47:52.834Z,15.41
2022-08-21T04:50:25.614Z,15.21
2022-08-21T04:52:52.475Z,15.34
2022-08-21T04:55:21.173Z,15.19
2022-08-21T04:57:48.987Z,15.13
2022-08-21T05:00:19.732Z,15.17
2022-08-21T05:02:48.792Z,15.17
2022-08-21T05:05:17.117Z,15.18
2022-08-21T05:07:45.587Z,15.32
2022-08-21T05:10:15.040Z,15.30
2022-08-21T05:12:50.807Z,15.31
2022-08-21T05:15:18.209Z,15.17
2022-08-21T05:17:53.746Z,15.20
2022-08-21T05:20:28.072Z,15.13
2022-08-21T05:22:54.744Z,15.21
2022-08-21T05:25:22.251Z,15.25
2022-08-21T05:27:51.948Z,15.25
2022-08-21T05:30:20.793Z,15.17
2022-08-21T05:32:48.773Z,15.24
2022-08-21T05:35:16.120Z,15.48
2022-08-21T05:37:42.722Z,15.26
2022-08-21T05:40:21.324Z,15.26
2022-08-21T05:42:54.548Z,15.38
2022-08-21T05:45:42.980Z,15.57
2022-08-21T05:48:31.240Z,15.68
2022-08-21T05:50:58.562Z,15.73
2022-08-21T05:53:25.605Z,15.52
2022-08-21T05:55:52.911Z,15.82
2022-08-21T05:58:21.930Z,15.89
2022-08-21T06:00:50.103Z,15.98
2022-08-21T06:03:29.186Z,15.99
2022-08-21T06:05:56.906Z,16.19
2022-08-21T06:08:24.303Z,16.32
2022-08-21T06:10:53.804Z,16.37
2022-08-21T06:13:21.960Z,16.30
2022-08-21T06:15:49.380Z,16.32
2022-08-21T06:18:16.350Z,16.54
2022-08-21T06:20:43.233Z,16.87
2022-08-21T06:23:10.327Z,16.82
2022-08-21T06:25:37.133Z,16.80
2022-08-21T06:28:03.819Z,16.79
2022-08-21T06:30:30.522Z,16.89
2022-08-21T06:32:57.199Z,17.01
2022-08-21T06:35:25.490Z,17.07
2022-08-21T06:37:52.138Z,17.11
2022-08-21T06:40:18.882Z,17.31
2022-08-21T06:42:49.837Z,17.47
2022-08-21T06:45:16.773Z,17.74
2022-08-21T06:47:43.294Z,17.63
2022-08-21T06:50:10.123Z,17.88
2022-08-21T06:52:38.353Z,18.07
2022-08-21T06:55:10.638Z,18.09
2022-08-21T06:57:37.261Z,18.06
2022-08-21T07:00:08.084Z,18.45
2022-08-21T07:02:34.802Z,18.69
2022-08-21T07:05:01.917Z,18.90
2022-08-21T07:07:47.477Z,19.12
2022-08-21T07:10:21.759Z,19.21
2022-08-21T07:12:50.760Z,19.32
2022-08-21T07:15:18.079Z,19.64
2022-08-21T07:17:47.229Z,19.93
2022-08-21T07:20:16.319Z,20.17
2022-08-21T07:22:43.709Z,20.55
2022-08-21T07:25:10.549Z,20.88
2022-08-21T07:27:37.184Z,21.05
2022-08-21T07:30:05.554Z,21.37
2022-08-21T07:32:32.438Z,21.69
2022-08-21T07:34:58.996Z,21.89
2022-08-21T07:37:26.077Z,22.11
2022-08-21T07:39:52.679Z,22.31
2022-08-21T07:42:19.364Z,22.32
2022-08-21T07:44:49.544Z,22.50
2022-08-21T07:47:41.334Z,22.78
2022-08-21T07:50:16.257Z,23.28
2022-08-21T07:52:44.832Z,23.78
2022-08-21T07:55:15.492Z,24.06
2022-08-21T07:57:42.900Z,24.14
2022-08-21T08:00:14.720Z,24.21
2022-08-21T08:02:46.184Z,24.48
2022-08-21T08:05:13.255Z,24.46
2022-08-21T08:07:40.176Z,24.38
2022-08-21T08:10:08.075Z,24.30
2022-08-21T08:12:36.283Z,24.23
2022-08-21T08:15:03.979Z,23.96
2022-08-21T08:17:30.564Z,23.72
2022-08-21T08:19:57.115Z,23.76
2022-08-21T08:22:24.967Z,23.93
2022-08-21T08:24:53.125Z,24.08
2022-08-21T08:27:20.900Z,24.06
2022-08-21T08:29:48.469Z,24.00
2022-08-21T08:32:16.094Z,23.92
2022-08-21T08:34:42.634Z,24.16
2022-08-21T08:37:10.974Z,24.41
2022-08-21T08:39:37.915Z,24.66
2022-08-21T08:42:32.262Z,24.89
2022-08-21T08:45:02.849Z,25.34
2022-08-21T08:47:32.158Z,25.73
2022-08-21T08:50:28.381Z,26.21
2022-08-21T08:53:01.144Z,26.15
2022-08-21T08:55:32.485Z,26.21
2022-08-21T08:57:59.310Z,26.12
2022-08-21T09:00:26.452Z,26.31
2022-08-21T09:02:56.951Z,26.80
2022-08-21T09:05:30.124Z,27.36
2022-08-21T09:08:19.686Z,27.77
2022-08-21T09:10:52.015Z,28.22
2022-08-21T09:13:27.223Z,28.18
2022-08-21T09:16:24.303Z,27.78
2022-08-21T09:19:11.236Z,27.29
2022-08-21T09:21:37.722Z,26.94
2022-08-21T09:24:23.732Z,26.94
2022-08-21T09:27:02.382Z,27.08
2022-08-21T09:29:33.703Z,27.21
2022-08-21T09:32:00.586Z,27.20
2022-08-21T09:34:29.945Z,27.13
2022-08-21T09:36:57.359Z,26.88
2022-08-21T09:39:40.146Z,26.96
2022-08-21T09:42:10.017Z,27.20
2022-08-21T09:44:42.572Z,27.29
2022-08-21T09:47:10.396Z,27.15
2022-08-21T09:49:39.911Z,26.86
2022-08-21T09:52:18.450Z,27.06
2022-08-21T09:54:52.010Z,28.25
2022-08-21T09:57:46.415Z,29.85
2022-08-21T10:00:27.382Z,30.81
2022-08-21T10:02:54.102Z,31.54
2022-08-21T10:05:28.070Z,32.38
2022-08-21T10:07:54.699Z,32.23
2022-08-21T10:10:29.730Z,31.61
2022-08-21T10:13:35.055Z,30.32
2022-08-21T10:16:22.869Z,29.64
2022-08-21T10:19:05.743Z,30.47
2022-08-21T10:21:44.339Z,31.64
2022-08-21T10:24:37.612Z,32.21
2022-08-21T10:27:26.183Z,32.37
2022-08-21T10:30:02.623Z,31.67
2022-08-21T10:32:29.108Z,30.81
2022-08-21T10:35:03.331Z,29.88
2022-08-21T10:37:54.073Z,28.76
2022-08-21T10:40:20.571Z,28.31
2022-08-21T10:43:05.333Z,28.55
2022-08-21T10:45:50.701Z,29.67
2022-08-21T10:48:27.358Z,31.10
2022-08-21T10:51:29.105Z,32.43
2022-08-21T10:54:13.754Z,32.33
2022-08-21T10:56:43.982Z,31.75
2022-08-21T10:59:19.765Z,31.41
2022-08-21T11:02:01.873Z,31.07
2022-08-21T11:04:49.491Z,30.51
2022-08-21T11:07:27.191Z,30.17
2022-08-21T11:10:05.107Z,29.69
2022-08-21T11:13:09.768Z,29.41
2022-08-21T11:15:46.790Z,29.21
2022-08-21T11:18:37.885Z,28.88
2022-08-21T11:21:32.134Z,28.66
2022-08-21T11:24:11.654Z,28.59
2022-08-21T11:26:52.052Z,28.42
2022-08-21T11:29:32.341Z,28.40
2022-08-21T11:32:14.137Z,28.41
2022-08-21T11:35:02.767Z,28.24
2022-08-21T11:38:06.534Z,28.11
2022-08-21T11:41:00.479Z,27.88
2022-08-21T11:43:36.841Z,27.59
2022-08-21T11:46:26.704Z,27.31
2022-08-21T11:49:11.724Z,27.00
2022-08-21T11:51:46.766Z,26.78
2022-08-21T11:54:41.002Z,26.53
2022-08-21T11:57:46.187Z,26.41
2022-08-21T12:00:21.727Z,26.48
2022-08-21T12:03:29.028Z,26.51
2022-08-21T12:06:10.422Z,26.55
2022-08-21T12:08:39.932Z,26.70
2022-08-21T12:11:10.726Z,27.05
2022-08-21T12:13:42.589Z,27.79
2022-08-21T12:16:16.688Z,28.14
2022-08-21T12:18:44.124Z,28.04
2022-08-21T12:21:25.371Z,27.77
2022-08-21T12:24:12.986Z,27.57
2022-08-21T12:26:52.549Z,27.41
2022-08-21T12:29:26.432Z,27.44
2022-08-21T12:31:57.692Z,27.59
2022-08-21T12:34:40.490Z,27.70
2022-08-21T12:37:16.327Z,28.02
2022-08-21T12:39:47.597Z,28.16
2022-08-21T12:42:52.916Z,28.35
2022-08-21T12:45:42.632Z,28.60
2022-08-21T12:48:27.781Z,28.63
2022-08-21T12:51:06.311Z,28.54
2022-08-21T12:53:36.581Z,28.74
2022-08-21T12:56:05.436Z,28.55
2022-08-21T12:58:32.694Z,28.35
2022-08-21T13:01:04.398Z,28.22
2022-08-21T13:03:32.659Z,27.94
2022-08-21T13:06:00.154Z,27.52
2022-08-21T13:08:28.224Z,27.50
2022-08-21T13:11:13.422Z,27.48
2022-08-21T13:13:46.856Z,27.75
2022-08-21T13:16:25.865Z,27.99
2022-08-21T13:19:00.043Z,28.37
2022-08-21T13:21:33.410Z,28.13
2022-08-21T13:24:43.992Z,27.80
2022-08-21T13:27:21.872Z,27.44
2022-08-21T13:29:53.094Z,27.17
2022-08-21T13:32:26.566Z,26.92
2022-08-21T13:34:54.252Z,26.56
2022-08-21T13:37:26.299Z,25.98
2022-08-21T13:39:56.116Z,26.10
2022-08-21T13:42:27.892Z,26.32
2022-08-21T13:44:55.566Z,26.66
2022-08-21T13:47:22.361Z,27.05
2022-08-21T13:49:52.275Z,27.44
2022-08-21T13:52:26.815Z,27.86
2022-08-21T13:55:08.643Z,28.21
2022-08-21T13:57:37.681Z,28.38
2022-08-21T14:00:16.335Z,28.43
2022-08-21T14:02:46.103Z,28.67
2022-08-21T14:05:22.566Z,28.87
2022-08-21T14:07:53.746Z,28.92
2022-08-21T14:10:24.316Z,28.93
2022-08-21T14:12:55.811Z,28.77
2022-08-21T14:15:33.137Z,28.51
2022-08-21T14:18:17.797Z,28.22
2022-08-21T14:20:46.042Z,28.13
2022-08-21T14:23:24.412Z,27.94
2022-08-21T14:25:51.440Z,27.74
2022-08-21T14:28:34.355Z,27.51
2022-08-21T14:31:22.287Z,27.26
2022-08-21T14:33:49.795Z,27.03
2022-08-21T14:36:16.653Z,26.94
2022-08-21T14:38:43.475Z,26.98
2022-08-21T14:41:23.239Z,27.17
2022-08-21T14:44:05.749Z,27.43
2022-08-21T14:46:36.498Z,27.72
2022-08-21T14:49:18.300Z,27.87
2022-08-21T14:51:54.048Z,27.50
2022-08-21T14:54:21.137Z,27.72
2022-08-21T14:56:58.018Z,27.78
2022-08-21T14:59:24.750Z,27.79
2022-08-21T15:01:51.508Z,28.24
2022-08-21T15:04:18.099Z,29.20
2022-08-21T15:06:44.715Z,30.26
2022-08-21T15:09:11.263Z,30.53
2022-08-21T15:11:41.750Z,30.34
2022-08-21T15:14:16.360Z,30.39
2022-08-21T15:16:42.942Z,30.63
2022-08-21T15:19:09.524Z,30.81
2022-08-21T15:21:36.117Z,31.12
2022-08-21T15:24:11.948Z,31.42
2022-08-21T15:26:39.052Z,31.72
2022-08-21T15:29:07.717Z,31.95
2022-08-21T15:31:37.132Z,31.95
2022-08-21T15:34:04.193Z,32.11
2022-08-21T15:36:30.841Z,31.95
2022-08-21T15:39:00.290Z,31.59
2022-08-21T15:41:26.929Z,31.10
2022-08-21T15:43:54.314Z,30.65
2022-08-21T15:46:22.287Z,30.01
2022-08-21T15:48:49.255Z,29.33
2022-08-21T15:51:17.765Z,28.95
2022-08-21T15:53:45.158Z,28.58
2022-08-21T15:56:35.727Z,28.45
2022-08-21T15:59:06.321Z,28.23
2022-08-21T16:01:44.844Z,28.07
2022-08-21T16:04:16.331Z,28.25
2022-08-21T16:06:54.297Z,28.60
2022-08-21T16:09:23.951Z,28.90
2022-08-21T16:11:51.520Z,28.89
2022-08-21T16:14:18.413Z,28.71
2022-08-21T16:16:45.413Z,28.58
2022-08-21T16:19:13.575Z,28.20
2022-08-21T16:21:40.223Z,27.96
2022-08-21T16:24:06.882Z,27.78
2022-08-21T16:26:34.015Z,27.67
2022-08-21T16:29:01.727Z,27.57
2022-08-21T16:31:28.477Z,27.49
2022-08-21T16:33:57.988Z,27.38
2022-08-21T16:36:28.616Z,27.20
2022-08-21T16:38:57.493Z,27.00
2022-08-21T16:41:27.412Z,26.98
2022-08-21T16:43:54.050Z,26.77
2022-08-21T16:46:23.167Z,26.57
2022-08-21T16:48:50.276Z,26.53
2022-08-21T16:51:17.826Z,26.31
2022-08-21T16:53:44.383Z,26.09
2022-08-21T16:56:13.559Z,25.96
2022-08-21T16:58:44.088Z,25.81
2022-08-21T17:01:15.186Z,25.69
2022-08-21T17:03:45.844Z,25.62
2022-08-21T17:06:14.054Z,25.62
2022-08-21T17:08:40.814Z,25.51
2022-08-21T17:11:12.668Z,25.52
2022-08-21T17:14:01.982Z,25.55
2022-08-21T17:16:32.210Z,25.49
2022-08-21T17:18:58.743Z,25.42
2022-08-21T17:21:25.297Z,25.25
2022-08-21T17:23:51.848Z,25.03
2022-08-21T17:26:19.552Z,24.99
2022-08-21T17:28:47.105Z,24.92
2022-08-21T17:31:14.391Z,24.89
2022-08-21T17:33:50.539Z,24.90
2022-08-21T17:36:23.136Z,24.81
2022-08-21T17:38:50.193Z,24.80
2022-08-21T17:41:17.674Z,24.67
2022-08-21T17:43:44.401Z,24.55
2022-08-21T17:46:17.267Z,24.36
2022-08-21T17:48:47.247Z,24.38
2022-08-21T17:51:15.066Z,24.20
2022-08-21T17:53:42.637Z,24.09
2022-08-21T17:56:09.438Z,24.10
2022-08-21T17:58:37.079Z,24.02
2022-08-21T18:01:05.876Z,23.92
2022-08-21T18:03:38.213Z,23.85
2022-08-21T18:06:06.499Z,23.88
2022-08-21T18:08:34.154Z,23.86
2022-08-21T18:11:01.639Z,23.73
2022-08-21T18:13:32.528Z,23.61
2022-08-21T18:16:03.111Z,23.59
2022-08-21T18:18:36.949Z,23.45
2022-08-21T18:21:03.676Z,23.32
2022-08-21T18:23:43.162Z,23.44
2022-08-21T18:26:14.390Z,23.35
2022-08-21T18:28:41.449Z,23.33
2022-08-21T18:31:10.842Z,23.20
2022-08-21T18:33:39.585Z,23.08
2022-08-21T18:36:11.191Z,22.99
2022-08-21T18:38:37.899Z,22.92
2022-08-21T18:41:09.513Z,22.81
2022-08-21T18:43:37.079Z,22.60
2022-08-21T18:46:05.023Z,22.63
2022-08-21T18:48:32.303Z,22.46
2022-08-21T18:51:01.705Z,22.28
2022-08-21T18:53:29.173Z,22.28
2022-08-21T18:55:57.753Z,22.07
2022-08-21T18:58:32.042Z,21.94
2022-08-21T19:01:02.180Z,21.92
2022-08-21T19:03:31.617Z,21.75
2022-08-21T19:05:58.410Z,21.87
2022-08-21T19:08:32.340Z,21.72
2022-08-21T19:11:05.247Z,21.67
2022-08-21T19:13:33.968Z,21.65
2022-08-21T19:16:03.702Z,21.51
2022-08-21T19:18:38.155Z,21.67
2022-08-21T19:21:06.352Z,21.59
2022-08-21T19:23:35.587Z,21.53
2022-08-21T19:26:07.498Z,21.57
2022-08-21T19:28:41.723Z,21.63
2022-08-21T19:31:16.233Z,21.64
2022-08-21T19:33:46.781Z,21.51
2022-08-21T19:36:18.012Z,21.43
2022-08-21T19:38:46.142Z,21.35
2022-08-21T19:41:15.575Z,21.42
2022-08-21T19:43:47.804Z,21.28
2022-08-21T19:46:23.619Z,21.31
2022-08-21T19:48:52.755Z,21.33
2022-08-21T19:51:19.574Z,21.39
2022-08-21T19:53:46.332Z,21.19
2022-08-21T19:56:18.050Z,21.29
2022-08-21T20:01:35.886Z,21.29
2022-08-21T20:04:10.675Z,21.28
2022-08-21T20:06:44.970Z,21.24
2022-08-21T20:09:12.112Z,21.01
2022-08-21T20:11:46.618Z,21.14
2022-08-21T20:14:16.623Z,20.99
2022-08-21T20:16:44.087Z,21.03
2022-08-21T20:19:11.426Z,20.85
2022-08-21T20:21:43.599Z,20.76
2022-08-21T20:24:15.431Z,20.88
2022-08-21T20:26:48.779Z,20.94
2022-08-21T20:29:24.515Z,20.96
2022-08-21T20:31:59.284Z,20.86
2022-08-21T20:34:26.175Z,20.88
2022-08-21T20:36:53.479Z,20.87
2022-08-21T20:39:20.112Z,20.89
2022-08-21T20:41:52.223Z,20.90
2022-08-21T20:44:18.959Z,20.93
2022-08-21T20:46:45.779Z,20.97
2022-08-21T20:49:21.252Z,20.84
2022-08-21T20:51:52.094Z,20.82
2022-08-21T20:54:37.555Z,20.54
2022-08-21T20:57:14.033Z,20.48
2022-08-21T20:59:56.398Z,20.39
2022-08-21T21:02:42.748Z,20.25
2022-08-21T21:05:16.374Z,20.01
2022-08-21T21:08:07.088Z,20.05
2022-08-21T21:13:39.538Z,19.91
2022-08-21T21:16:14.526Z,19.66
2022-08-21T21:18:50.402Z,19.80
2022-08-21T21:21:33.992Z,19.64
2022-08-21T21:24:11.975Z,19.70
2022-08-21T21:27:00.275Z,19.68
2022-08-21T21:29:31.927Z,19.63
2022-08-21T21:31:59.089Z,19.68
2022-08-21T21:34:28.069Z,19.73
2022-08-21T21:37:05.765Z,19.83
2022-08-21T21:39:41.513Z,19.80
2022-08-21T21:42:15.978Z,19.81
2022-08-21T21:44:45.478Z,19.83
2022-08-21T21:47:21.407Z,19.70
2022-08-21T21:50:18.996Z,19.78
2022-08-21T21:52:56.143Z,19.73
2022-08-21T21:55:50.363Z,19.87
2022-08-21T21:58:41.962Z,19.91
2022-08-21T22:01:21.873Z,19.94
2022-08-21T22:07:14.804Z,19.99
2022-08-21T22:09:59.493Z,19.96
2022-08-21T22:13:10.555Z,19.96
2022-08-21T22:15:38.393Z,19.99
2022-08-21T22:18:11.966Z,20.02
2022-08-21T22:20:46.224Z,20.07
2022-08-21T22:23:18.940Z,19.99
2022-08-21T22:25:49.041Z,20.04
2022-08-21T22:31:18.364Z,20.01
2022-08-21T22:34:01.745Z,20.01
2022-08-21T22:36:38.149Z,20.01
2022-08-21T22:39:11.950Z,20.09
2022-08-21T22:41:43.726Z,19.98
2022-08-21T22:44:22.545Z,20.05
2022-08-21T22:46:51.182Z,20.00
2022-08-21T22:49:34.334Z,19.98
2022-08-21T22:52:18.309Z,19.92
2022-08-21T22:54:45.368Z,19.85
2022-08-21T22:57:32.330Z,19.88
2022-08-21T23:00:11.877Z,19.92
2022-08-21T23:02:52.246Z,19.96
2022-08-21T23:05:39.168Z,19.86
2022-08-21T23:08:38.675Z,19.82
2022-08-21T23:11:39.936Z,19.76
2022-08-21T23:14:11.955Z,19.81
2022-08-21T23:17:00.991Z,19.78
2022-08-21T23:19:57.571Z,19.67
2022-08-21T23:22:40.690Z,19.61
2022-08-21T23:25:27.582Z,19.38
2022-08-21T23:28:16.248Z,19.27
2022-08-21T23:31:01.021Z,19.40
2022-08-21T23:33:55.736Z,19.43
2022-08-21T23:37:09.358Z,19.56
2022-08-21T23:40:06.982Z,19.56
2022-08-21T23:43:21.242Z,19.63
2022-08-21T23:46:16.052Z,19.55
2022-08-21T23:49:20.434Z,19.54
2022-08-21T23:51:52.882Z,19.54
2022-08-21T23:54:55.951Z,19.43
2022-08-21T23:57:44.583Z,19.46
